sensor_id;sensor_type;location;lat;lon;timestamp;P1;durP1;ratioP1;P2;durP2;ratioP2
40533;SDS011;26233;51.894;10.192;2023-06-14T00:02:16;1.83;;;1.58;;
40533;SDS011;26233;51.894;10.192;2023-06-14T00:04:43;1.80;;;1.65;;
40533;SDS011;26233;51.894;10.192;2023-06-14T00:07:13;1.65;;;1.55;;
40533;SDS011;26233;51.894;10.192;2023-06-14T00:09:43;3.08;;;1.70;;
40533;SDS011;26233;51.894;10.192;2023-06-14T00:12:10;1.70;;;1.60;;
40533;SDS011;26233;51.894;10.192;2023-06-14T00:14:37;2.28;;;1.88;;
40533;SDS011;26233;51.894;10.192;2023-06-14T00:17:04;2.00;;;1.70;;
40533;SDS011;26233;51.894;10.192;2023-06-14T00:19:32;1.70;;;1.60;;
40533;SDS011;26233;51.894;10.192;2023-06-14T00:22:01;1.65;;;1.55;;
40533;SDS011;26233;51.894;10.192;2023-06-14T00:24:28;2.28;;;1.67;;
40533;SDS011;26233;51.894;10.192;2023-06-14T00:26:57;1.90;;;1.80;;
40533;SDS011;26233;51.894;10.192;2023-06-14T00:29:24;2.25;;;1.83;;
40533;SDS011;26233;51.894;10.192;2023-06-14T00:31:51;2.47;;;1.85;;
40533;SDS011;26233;51.894;10.192;2023-06-14T00:34:18;2.03;;;1.67;;
40533;SDS011;26233;51.894;10.192;2023-06-14T00:36:45;1.65;;;1.55;;
40533;SDS011;26233;51.894;10.192;2023-06-14T00:39:12;1.95;;;1.80;;
40533;SDS011;26233;51.894;10.192;2023-06-14T00:41:39;2.10;;;1.90;;
40533;SDS011;26233;51.894;10.192;2023-06-14T00:44:07;1.98;;;1.70;;
40533;SDS011;26233;51.894;10.192;2023-06-14T00:46:34;1.73;;;1.60;;
40533;SDS011;26233;51.894;10.192;2023-06-14T00:49:01;1.80;;;1.70;;
40533;SDS011;26233;51.894;10.192;2023-06-14T00:51:29;1.83;;;1.73;;
40533;SDS011;26233;51.894;10.192;2023-06-14T00:53:57;1.98;;;1.88;;
40533;SDS011;26233;51.894;10.192;2023-06-14T00:56:24;1.80;;;1.70;;
40533;SDS011;26233;51.894;10.192;2023-06-14T00:58:52;1.83;;;1.60;;
40533;SDS011;26233;51.894;10.192;2023-06-14T01:01:21;1.80;;;1.70;;
40533;SDS011;26233;51.894;10.192;2023-06-14T01:03:49;2.25;;;1.80;;
40533;SDS011;26233;51.894;10.192;2023-06-14T01:06:18;2.00;;;1.77;;
40533;SDS011;26233;51.894;10.192;2023-06-14T01:08:57;2.28;;;1.70;;
40533;SDS011;26233;51.894;10.192;2023-06-14T01:11:32;2.05;;;1.85;;
40533;SDS011;26233;51.894;10.192;2023-06-14T01:14:07;1.80;;;1.70;;
40533;SDS011;26233;51.894;10.192;2023-06-14T01:16:37;1.75;;;1.65;;
40533;SDS011;26233;51.894;10.192;2023-06-14T01:19:05;2.63;;;2.05;;
40533;SDS011;26233;51.894;10.192;2023-06-14T01:21:34;2.13;;;1.70;;
40533;SDS011;26233;51.894;10.192;2023-06-14T01:24:08;1.80;;;1.70;;
40533;SDS011;26233;51.894;10.192;2023-06-14T01:26:36;2.13;;;1.92;;
40533;SDS011;26233;51.894;10.192;2023-06-14T01:29:06;1.92;;;1.83;;
40533;SDS011;26233;51.894;10.192;2023-06-14T01:31:36;2.40;;;1.70;;
40533;SDS011;26233;51.894;10.192;2023-06-14T01:34:06;2.30;;;1.88;;
40533;SDS011;26233;51.894;10.192;2023-06-14T01:36:34;2.33;;;1.90;;
40533;SDS011;26233;51.894;10.192;2023-06-14T01:39:08;1.80;;;1.70;;
40533;SDS011;26233;51.894;10.192;2023-06-14T01:41:36;2.40;;;1.70;;
40533;SDS011;26233;51.894;10.192;2023-06-14T01:44:04;1.95;;;1.75;;
40533;SDS011;26233;51.894;10.192;2023-06-14T01:46:32;2.72;;;1.98;;
40533;SDS011;26233;51.894;10.192;2023-06-14T01:48:59;4.18;;;2.00;;
40533;SDS011;26233;51.894;10.192;2023-06-14T01:51:26;2.10;;;2.00;;
40533;SDS011;26233;51.894;10.192;2023-06-14T01:53:53;1.75;;;1.65;;
40533;SDS011;26233;51.894;10.192;2023-06-14T01:56:21;2.00;;;1.80;;
40533;SDS011;26233;51.894;10.192;2023-06-14T01:58:52;2.67;;;2.00;;
40533;SDS011;26233;51.894;10.192;2023-06-14T02:01:19;2.00;;;1.90;;
40533;SDS011;26233;51.894;10.192;2023-06-14T02:03:46;1.85;;;1.75;;
40533;SDS011;26233;51.894;10.192;2023-06-14T02:06:14;2.22;;;1.90;;
40533;SDS011;26233;51.894;10.192;2023-06-14T02:08:41;1.80;;;1.70;;
40533;SDS011;26233;51.894;10.192;2023-06-14T02:11:08;1.70;;;1.52;;
40533;SDS011;26233;51.894;10.192;2023-06-14T02:13:37;1.63;;;1.52;;
40533;SDS011;26233;51.894;10.192;2023-06-14T02:16:04;2.10;;;2.00;;
40533;SDS011;26233;51.894;10.192;2023-06-14T02:18:32;1.83;;;1.65;;
40533;SDS011;26233;51.894;10.192;2023-06-14T02:20:59;2.10;;;1.80;;
40533;SDS011;26233;51.894;10.192;2023-06-14T02:23:26;3.53;;;1.75;;
40533;SDS011;26233;51.894;10.192;2023-06-14T02:25:53;1.85;;;1.75;;
40533;SDS011;26233;51.894;10.192;2023-06-14T02:28:20;1.90;;;1.80;;
40533;SDS011;26233;51.894;10.192;2023-06-14T02:30:48;1.88;;;1.77;;
40533;SDS011;26233;51.894;10.192;2023-06-14T02:33:15;2.97;;;2.10;;
40533;SDS011;26233;51.894;10.192;2023-06-14T02:35:44;1.80;;;1.70;;
40533;SDS011;26233;51.894;10.192;2023-06-14T02:38:12;1.70;;;1.60;;
40533;SDS011;26233;51.894;10.192;2023-06-14T02:40:39;2.42;;;1.92;;
40533;SDS011;26233;51.894;10.192;2023-06-14T02:43:07;1.80;;;1.52;;
40533;SDS011;26233;51.894;10.192;2023-06-14T02:45:34;1.90;;;1.80;;
40533;SDS011;26233;51.894;10.192;2023-06-14T02:48:03;1.70;;;1.60;;
40533;SDS011;26233;51.894;10.192;2023-06-14T02:50:30;1.90;;;1.80;;
40533;SDS011;26233;51.894;10.192;2023-06-14T02:52:57;2.17;;;1.98;;
40533;SDS011;26233;51.894;10.192;2023-06-14T02:55:24;3.47;;;1.80;;
40533;SDS011;26233;51.894;10.192;2023-06-14T02:57:52;1.80;;;1.70;;
40533;SDS011;26233;51.894;10.192;2023-06-14T03:00:19;1.70;;;1.60;;
40533;SDS011;26233;51.894;10.192;2023-06-14T03:02:47;2.17;;;1.70;;
40533;SDS011;26233;51.894;10.192;2023-06-14T03:05:17;1.77;;;1.67;;
40533;SDS011;26233;51.894;10.192;2023-06-14T03:07:46;1.70;;;1.60;;
40533;SDS011;26233;51.894;10.192;2023-06-14T03:10:13;2.05;;;1.85;;
40533;SDS011;26233;51.894;10.192;2023-06-14T03:12:40;2.00;;;1.80;;
40533;SDS011;26233;51.894;10.192;2023-06-14T03:15:08;1.63;;;1.50;;
40533;SDS011;26233;51.894;10.192;2023-06-14T03:17:38;1.73;;;1.60;;
40533;SDS011;26233;51.894;10.192;2023-06-14T03:20:06;1.73;;;1.63;;
40533;SDS011;26233;51.894;10.192;2023-06-14T03:22:35;1.77;;;1.67;;
40533;SDS011;26233;51.894;10.192;2023-06-14T03:25:03;2.03;;;1.65;;
40533;SDS011;26233;51.894;10.192;2023-06-14T03:27:31;2.13;;;1.92;;
40533;SDS011;26233;51.894;10.192;2023-06-14T03:29:58;1.85;;;1.67;;
40533;SDS011;26233;51.894;10.192;2023-06-14T03:32:25;2.10;;;1.80;;
40533;SDS011;26233;51.894;10.192;2023-06-14T03:34:52;3.00;;;2.08;;
40533;SDS011;26233;51.894;10.192;2023-06-14T03:37:20;2.10;;;1.58;;
40533;SDS011;26233;51.894;10.192;2023-06-14T03:39:49;2.22;;;1.75;;
40533;SDS011;26233;51.894;10.192;2023-06-14T03:42:16;2.47;;;1.80;;
40533;SDS011;26233;51.894;10.192;2023-06-14T03:44:43;1.98;;;1.63;;
40533;SDS011;26233;51.894;10.192;2023-06-14T03:47:10;1.80;;;1.70;;
40533;SDS011;26233;51.894;10.192;2023-06-14T03:49:37;4.15;;;1.98;;
40533;SDS011;26233;51.894;10.192;2023-06-14T03:52:05;1.73;;;1.63;;
40533;SDS011;26233;51.894;10.192;2023-06-14T03:54:32;1.80;;;1.70;;
40533;SDS011;26233;51.894;10.192;2023-06-14T03:57:00;1.63;;;1.52;;
40533;SDS011;26233;51.894;10.192;2023-06-14T03:59:28;2.53;;;1.73;;
40533;SDS011;26233;51.894;10.192;2023-06-14T04:01:55;1.80;;;1.70;;
40533;SDS011;26233;51.894;10.192;2023-06-14T04:04:22;1.85;;;1.75;;
40533;SDS011;26233;51.894;10.192;2023-06-14T04:06:53;1.85;;;1.65;;
40533;SDS011;26233;51.894;10.192;2023-06-14T04:09:21;2.00;;;1.80;;
40533;SDS011;26233;51.894;10.192;2023-06-14T04:11:50;1.80;;;1.70;;
40533;SDS011;26233;51.894;10.192;2023-06-14T04:14:19;1.70;;;1.60;;
40533;SDS011;26233;51.894;10.192;2023-06-14T04:16:46;1.80;;;1.70;;
40533;SDS011;26233;51.894;10.192;2023-06-14T04:19:14;1.67;;;1.58;;
40533;SDS011;26233;51.894;10.192;2023-06-14T04:21:41;2.72;;;2.00;;
40533;SDS011;26233;51.894;10.192;2023-06-14T04:24:08;2.13;;;1.73;;
40533;SDS011;26233;51.894;10.192;2023-06-14T04:26:38;1.98;;;1.77;;
40533;SDS011;26233;51.894;10.192;2023-06-14T04:29:05;2.22;;;1.60;;
40533;SDS011;26233;51.894;10.192;2023-06-14T04:31:34;2.60;;;1.50;;
40533;SDS011;26233;51.894;10.192;2023-06-14T04:34:04;2.65;;;1.67;;
40533;SDS011;26233;51.894;10.192;2023-06-14T04:36:31;1.50;;;1.40;;
40533;SDS011;26233;51.894;10.192;2023-06-14T04:39:02;1.73;;;1.50;;
40533;SDS011;26233;51.894;10.192;2023-06-14T04:41:29;2.10;;;1.92;;
40533;SDS011;26233;51.894;10.192;2023-06-14T04:43:57;1.70;;;1.60;;
40533;SDS011;26233;51.894;10.192;2023-06-14T04:46:26;1.70;;;1.60;;
40533;SDS011;26233;51.894;10.192;2023-06-14T04:48:55;1.80;;;1.70;;
40533;SDS011;26233;51.894;10.192;2023-06-14T04:51:22;1.60;;;1.50;;
40533;SDS011;26233;51.894;10.192;2023-06-14T04:53:55;1.73;;;1.55;;
40533;SDS011;26233;51.894;10.192;2023-06-14T04:56:23;1.80;;;1.70;;
40533;SDS011;26233;51.894;10.192;2023-06-14T04:58:51;1.58;;;1.48;;
40533;SDS011;26233;51.894;10.192;2023-06-14T05:01:19;1.73;;;1.63;;
40533;SDS011;26233;51.894;10.192;2023-06-14T05:03:48;1.67;;;1.58;;
40533;SDS011;26233;51.894;10.192;2023-06-14T05:06:17;1.92;;;1.80;;
40533;SDS011;26233;51.894;10.192;2023-06-14T05:08:44;1.73;;;1.63;;
40533;SDS011;26233;51.894;10.192;2023-06-14T05:11:11;1.75;;;1.65;;
40533;SDS011;26233;51.894;10.192;2023-06-14T05:13:38;1.60;;;1.50;;
40533;SDS011;26233;51.894;10.192;2023-06-14T05:16:06;1.60;;;1.50;;
40533;SDS011;26233;51.894;10.192;2023-06-14T05:18:33;3.45;;;1.60;;
40533;SDS011;26233;51.894;10.192;2023-06-14T05:21:00;2.15;;;1.63;;
40533;SDS011;26233;51.894;10.192;2023-06-14T05:23:30;1.73;;;1.63;;
40533;SDS011;26233;51.894;10.192;2023-06-14T05:25:57;2.92;;;1.70;;
40533;SDS011;26233;51.894;10.192;2023-06-14T05:28:24;3.50;;;1.85;;
40533;SDS011;26233;51.894;10.192;2023-06-14T05:30:51;1.80;;;1.55;;
40533;SDS011;26233;51.894;10.192;2023-06-14T05:33:18;2.13;;;1.92;;
40533;SDS011;26233;51.894;10.192;2023-06-14T05:35:45;1.80;;;1.70;;
40533;SDS011;26233;51.894;10.192;2023-06-14T05:38:12;2.33;;;1.67;;
40533;SDS011;26233;51.894;10.192;2023-06-14T05:40:41;1.63;;;1.52;;
40533;SDS011;26233;51.894;10.192;2023-06-14T05:43:08;1.60;;;1.50;;
40533;SDS011;26233;51.894;10.192;2023-06-14T05:45:35;2.33;;;1.70;;
40533;SDS011;26233;51.894;10.192;2023-06-14T05:48:02;2.67;;;1.80;;
40533;SDS011;26233;51.894;10.192;2023-06-14T05:50:30;1.90;;;1.80;;
40533;SDS011;26233;51.894;10.192;2023-06-14T05:52:57;2.00;;;1.80;;
40533;SDS011;26233;51.894;10.192;2023-06-14T05:55:24;1.92;;;1.77;;
40533;SDS011;26233;51.894;10.192;2023-06-14T05:57:52;2.58;;;1.98;;
40533;SDS011;26233;51.894;10.192;2023-06-14T06:00:20;1.90;;;1.80;;
40533;SDS011;26233;51.894;10.192;2023-06-14T06:02:47;2.53;;;1.75;;
40533;SDS011;26233;51.894;10.192;2023-06-14T06:05:14;2.00;;;1.90;;
40533;SDS011;26233;51.894;10.192;2023-06-14T06:07:42;2.15;;;1.95;;
40533;SDS011;26233;51.894;10.192;2023-06-14T06:10:09;1.90;;;1.80;;
40533;SDS011;26233;51.894;10.192;2023-06-14T06:12:37;2.35;;;2.05;;
40533;SDS011;26233;51.894;10.192;2023-06-14T06:15:06;2.00;;;1.90;;
40533;SDS011;26233;51.894;10.192;2023-06-14T06:17:37;2.65;;;1.88;;
40533;SDS011;26233;51.894;10.192;2023-06-14T06:20:04;2.65;;;2.10;;
40533;SDS011;26233;51.894;10.192;2023-06-14T06:22:33;3.00;;;2.17;;
40533;SDS011;26233;51.894;10.192;2023-06-14T06:25:00;1.95;;;1.85;;
40533;SDS011;26233;51.894;10.192;2023-06-14T06:27:27;2.20;;;2.00;;
40533;SDS011;26233;51.894;10.192;2023-06-14T06:29:55;2.00;;;1.90;;
40533;SDS011;26233;51.894;10.192;2023-06-14T06:32:23;1.92;;;1.83;;
40533;SDS011;26233;51.894;10.192;2023-06-14T06:34:50;2.53;;;2.25;;
40533;SDS011;26233;51.894;10.192;2023-06-14T06:37:17;1.95;;;1.85;;
40533;SDS011;26233;51.894;10.192;2023-06-14T06:39:45;2.30;;;2.10;;
40533;SDS011;26233;51.894;10.192;2023-06-14T06:42:13;2.10;;;1.90;;
40533;SDS011;26233;51.894;10.192;2023-06-14T06:44:40;2.70;;;1.92;;
40533;SDS011;26233;51.894;10.192;2023-06-14T06:47:07;1.80;;;1.70;;
40533;SDS011;26233;51.894;10.192;2023-06-14T06:49:37;1.92;;;1.83;;
40533;SDS011;26233;51.894;10.192;2023-06-14T06:52:05;2.28;;;2.08;;
40533;SDS011;26233;51.894;10.192;2023-06-14T06:54:33;2.00;;;1.80;;
40533;SDS011;26233;51.894;10.192;2023-06-14T06:57:00;2.00;;;1.90;;
40533;SDS011;26233;51.894;10.192;2023-06-14T06:59:27;1.80;;;1.70;;
40533;SDS011;26233;51.894;10.192;2023-06-14T07:01:55;3.35;;;2.20;;
40533;SDS011;26233;51.894;10.192;2023-06-14T07:04:22;2.35;;;1.80;;
40533;SDS011;26233;51.894;10.192;2023-06-14T07:06:50;2.25;;;1.90;;
40533;SDS011;26233;51.894;10.192;2023-06-14T07:09:20;2.22;;;2.05;;
40533;SDS011;26233;51.894;10.192;2023-06-14T07:11:48;1.67;;;1.58;;
40533;SDS011;26233;51.894;10.192;2023-06-14T07:14:15;2.03;;;1.88;;
40533;SDS011;26233;51.894;10.192;2023-06-14T07:16:42;2.10;;;1.90;;
40533;SDS011;26233;51.894;10.192;2023-06-14T07:19:09;2.20;;;2.00;;
40533;SDS011;26233;51.894;10.192;2023-06-14T07:21:36;2.17;;;1.98;;
40533;SDS011;26233;51.894;10.192;2023-06-14T07:24:05;2.22;;;2.03;;
40533;SDS011;26233;51.894;10.192;2023-06-14T07:26:33;2.30;;;2.13;;
40533;SDS011;26233;51.894;10.192;2023-06-14T07:29:00;2.20;;;2.05;;
40533;SDS011;26233;51.894;10.192;2023-06-14T07:31:27;2.45;;;2.25;;
40533;SDS011;26233;51.894;10.192;2023-06-14T07:33:55;2.00;;;1.80;;
40533;SDS011;26233;51.894;10.192;2023-06-14T07:36:22;1.88;;;1.77;;
40533;SDS011;26233;51.894;10.192;2023-06-14T07:38:49;1.92;;;1.80;;
40533;SDS011;26233;51.894;10.192;2023-06-14T07:41:17;1.95;;;1.85;;
40533;SDS011;26233;51.894;10.192;2023-06-14T07:43:44;1.70;;;1.60;;
40533;SDS011;26233;51.894;10.192;2023-06-14T07:46:11;2.10;;;1.83;;
40533;SDS011;26233;51.894;10.192;2023-06-14T07:48:38;1.80;;;1.70;;
40533;SDS011;26233;51.894;10.192;2023-06-14T07:51:06;2.70;;;1.92;;
40533;SDS011;26233;51.894;10.192;2023-06-14T07:53:36;2.13;;;1.92;;
40533;SDS011;26233;51.894;10.192;2023-06-14T07:56:03;2.00;;;1.90;;
40533;SDS011;26233;51.894;10.192;2023-06-14T07:58:32;1.85;;;1.75;;
40533;SDS011;26233;51.894;10.192;2023-06-14T08:00:59;2.78;;;1.75;;
40533;SDS011;26233;51.894;10.192;2023-06-14T08:03:28;1.67;;;1.58;;
40533;SDS011;26233;51.894;10.192;2023-06-14T08:05:55;2.40;;;2.20;;
40533;SDS011;26233;51.894;10.192;2023-06-14T08:08:22;2.20;;;1.70;;
40533;SDS011;26233;51.894;10.192;2023-06-14T08:10:49;2.22;;;2.03;;
40533;SDS011;26233;51.894;10.192;2023-06-14T08:13:16;1.88;;;1.77;;
40533;SDS011;26233;51.894;10.192;2023-06-14T08:15:45;2.05;;;1.75;;
40533;SDS011;26233;51.894;10.192;2023-06-14T08:18:12;2.20;;;2.00;;
40533;SDS011;26233;51.894;10.192;2023-06-14T08:20:39;2.28;;;2.08;;
40533;SDS011;26233;51.894;10.192;2023-06-14T08:23:06;2.35;;;1.92;;
40533;SDS011;26233;51.894;10.192;2023-06-14T08:25:34;3.45;;;2.17;;
40533;SDS011;26233;51.894;10.192;2023-06-14T08:28:01;1.95;;;1.83;;
40533;SDS011;26233;51.894;10.192;2023-06-14T08:30:28;4.30;;;1.92;;
40533;SDS011;26233;51.894;10.192;2023-06-14T08:32:56;1.88;;;1.77;;
40533;SDS011;26233;51.894;10.192;2023-06-14T08:35:23;2.10;;;1.90;;
40533;SDS011;26233;51.894;10.192;2023-06-14T08:37:50;2.00;;;1.90;;
40533;SDS011;26233;51.894;10.192;2023-06-14T08:40:18;2.05;;;1.95;;
40533;SDS011;26233;51.894;10.192;2023-06-14T08:42:47;1.88;;;1.77;;
40533;SDS011;26233;51.894;10.192;2023-06-14T08:45:17;2.03;;;1.83;;
40533;SDS011;26233;51.894;10.192;2023-06-14T08:47:46;1.90;;;1.80;;
40533;SDS011;26233;51.894;10.192;2023-06-14T08:50:18;2.35;;;1.80;;
40533;SDS011;26233;51.894;10.192;2023-06-14T08:52:50;1.88;;;1.77;;
40533;SDS011;26233;51.894;10.192;2023-06-14T08:55:22;2.08;;;1.98;;
40533;SDS011;26233;51.894;10.192;2023-06-14T08:57:53;4.50;;;1.90;;
40533;SDS011;26233;51.894;10.192;2023-06-14T09:00:22;2.45;;;1.85;;
40533;SDS011;26233;51.894;10.192;2023-06-14T09:02:50;1.92;;;1.83;;
40533;SDS011;26233;51.894;10.192;2023-06-14T09:05:24;1.88;;;1.77;;
40533;SDS011;26233;51.894;10.192;2023-06-14T09:07:52;1.77;;;1.67;;
40533;SDS011;26233;51.894;10.192;2023-06-14T09:10:20;2.00;;;1.80;;
40533;SDS011;26233;51.894;10.192;2023-06-14T09:12:48;2.00;;;1.90;;
40533;SDS011;26233;51.894;10.192;2023-06-14T09:15:15;1.95;;;1.85;;
40533;SDS011;26233;51.894;10.192;2023-06-14T09:17:42;1.95;;;1.85;;
40533;SDS011;26233;51.894;10.192;2023-06-14T09:20:10;2.00;;;1.85;;
40533;SDS011;26233;51.894;10.192;2023-06-14T09:22:40;2.17;;;1.98;;
40533;SDS011;26233;51.894;10.192;2023-06-14T09:25:07;3.83;;;1.83;;
40533;SDS011;26233;51.894;10.192;2023-06-14T09:27:35;1.80;;;1.70;;
40533;SDS011;26233;51.894;10.192;2023-06-14T09:30:05;1.75;;;1.65;;
40533;SDS011;26233;51.894;10.192;2023-06-14T09:32:36;1.85;;;1.75;;
40533;SDS011;26233;51.894;10.192;2023-06-14T09:35:05;1.77;;;1.67;;
40533;SDS011;26233;51.894;10.192;2023-06-14T09:37:33;1.92;;;1.83;;
40533;SDS011;26233;51.894;10.192;2023-06-14T09:40:04;2.50;;;2.03;;
40533;SDS011;26233;51.894;10.192;2023-06-14T09:42:33;1.63;;;1.52;;
40533;SDS011;26233;51.894;10.192;2023-06-14T09:45:00;3.38;;;1.90;;
40533;SDS011;26233;51.894;10.192;2023-06-14T09:47:30;2.38;;;1.58;;
40533;SDS011;26233;51.894;10.192;2023-06-14T09:49:57;2.10;;;1.77;;
40533;SDS011;26233;51.894;10.192;2023-06-14T09:52:25;1.80;;;1.70;;
40533;SDS011;26233;51.894;10.192;2023-06-14T09:54:53;1.65;;;1.55;;
40533;SDS011;26233;51.894;10.192;2023-06-14T09:57:23;1.90;;;1.80;;
40533;SDS011;26233;51.894;10.192;2023-06-14T09:59:52;1.60;;;1.50;;
40533;SDS011;26233;51.894;10.192;2023-06-14T10:02:24;1.70;;;1.60;;
40533;SDS011;26233;51.894;10.192;2023-06-14T10:04:56;1.80;;;1.70;;
40533;SDS011;26233;51.894;10.192;2023-06-14T10:07:31;1.80;;;1.70;;
40533;SDS011;26233;51.894;10.192;2023-06-14T10:10:04;1.60;;;1.50;;
40533;SDS011;26233;51.894;10.192;2023-06-14T10:12:34;1.50;;;1.40;;
40533;SDS011;26233;51.894;10.192;2023-06-14T10:15:01;1.80;;;1.70;;
40533;SDS011;26233;51.894;10.192;2023-06-14T10:17:33;1.92;;;1.83;;
40533;SDS011;26233;51.894;10.192;2023-06-14T10:20:21;1.80;;;1.70;;
40533;SDS011;26233;51.894;10.192;2023-06-14T10:22:58;1.75;;;1.60;;
40533;SDS011;26233;51.894;10.192;2023-06-14T10:25:33;1.70;;;1.60;;
40533;SDS011;26233;51.894;10.192;2023-06-14T10:28:05;1.73;;;1.63;;
40533;SDS011;26233;51.894;10.192;2023-06-14T10:33:32;1.75;;;1.65;;
40533;SDS011;26233;51.894;10.192;2023-06-14T10:36:10;1.70;;;1.60;;
40533;SDS011;26233;51.894;10.192;2023-06-14T10:38:59;2.10;;;1.42;;
40533;SDS011;26233;51.894;10.192;2023-06-14T10:41:28;1.90;;;1.80;;
40533;SDS011;26233;51.894;10.192;2023-06-14T10:47:20;1.60;;;1.50;;
40533;SDS011;26233;51.894;10.192;2023-06-14T10:49:52;1.75;;;1.65;;
40533;SDS011;26233;51.894;10.192;2023-06-14T10:52:21;1.50;;;1.40;;
40533;SDS011;26233;51.894;10.192;2023-06-14T10:57:44;1.60;;;1.50;;
40533;SDS011;26233;51.894;10.192;2023-06-14T11:00:15;1.67;;;1.58;;
40533;SDS011;26233;51.894;10.192;2023-06-14T11:06:10;1.60;;;1.50;;
40533;SDS011;26233;51.894;10.192;2023-06-14T11:08:46;1.52;;;1.40;;
40533;SDS011;26233;51.894;10.192;2023-06-14T11:11:35;1.70;;;1.60;;
40533;SDS011;26233;51.894;10.192;2023-06-14T11:14:04;1.60;;;1.50;;
40533;SDS011;26233;51.894;10.192;2023-06-14T11:16:32;1.60;;;1.50;;
40533;SDS011;26233;51.894;10.192;2023-06-14T11:19:00;2.67;;;2.10;;
40533;SDS011;26233;51.894;10.192;2023-06-14T11:21:28;2.05;;;1.85;;
40533;SDS011;26233;51.894;10.192;2023-06-14T11:23:56;1.73;;;1.63;;
40533;SDS011;26233;51.894;10.192;2023-06-14T11:26:26;1.83;;;1.73;;
40533;SDS011;26233;51.894;10.192;2023-06-14T11:28:57;2.22;;;1.67;;
40533;SDS011;26233;51.894;10.192;2023-06-14T11:31:25;1.60;;;1.50;;
40533;SDS011;26233;51.894;10.192;2023-06-14T11:33:55;2.30;;;2.10;;
40533;SDS011;26233;51.894;10.192;2023-06-14T11:36:23;1.80;;;1.70;;
40533;SDS011;26233;51.894;10.192;2023-06-14T11:38:57;2.25;;;1.80;;
40533;SDS011;26233;51.894;10.192;2023-06-14T11:41:37;4.63;;;2.05;;
40533;SDS011;26233;51.894;10.192;2023-06-14T11:44:07;1.90;;;1.80;;
40533;SDS011;26233;51.894;10.192;2023-06-14T11:46:34;2.33;;;1.90;;
40533;SDS011;26233;51.894;10.192;2023-06-14T11:49:03;1.90;;;1.80;;
40533;SDS011;26233;51.894;10.192;2023-06-14T11:51:32;2.53;;;2.00;;
40533;SDS011;26233;51.894;10.192;2023-06-14T11:54:00;2.33;;;2.10;;
40533;SDS011;26233;51.894;10.192;2023-06-14T11:56:28;2.95;;;2.20;;
40533;SDS011;26233;51.894;10.192;2023-06-14T11:58:56;1.98;;;1.88;;
40533;SDS011;26233;51.894;10.192;2023-06-14T12:01:24;2.95;;;2.25;;
40533;SDS011;26233;51.894;10.192;2023-06-14T12:03:52;2.05;;;1.95;;
40533;SDS011;26233;51.894;10.192;2023-06-14T12:06:29;2.42;;;2.20;;
40533;SDS011;26233;51.894;10.192;2023-06-14T12:09:02;2.53;;;2.30;;
40533;SDS011;26233;51.894;10.192;2023-06-14T12:11:32;5.88;;;2.80;;
40533;SDS011;26233;51.894;10.192;2023-06-14T12:14:00;2.70;;;2.42;;
40533;SDS011;26233;51.894;10.192;2023-06-14T12:16:30;2.15;;;2.05;;
40533;SDS011;26233;51.894;10.192;2023-06-14T12:19:00;2.28;;;2.08;;
40533;SDS011;26233;51.894;10.192;2023-06-14T12:21:37;2.85;;;2.28;;
40533;SDS011;26233;51.894;10.192;2023-06-14T12:24:07;2.92;;;2.08;;
40533;SDS011;26233;51.894;10.192;2023-06-14T12:26:37;2.50;;;2.30;;
40533;SDS011;26233;51.894;10.192;2023-06-14T12:29:06;2.33;;;1.98;;
40533;SDS011;26233;51.894;10.192;2023-06-14T12:31:33;2.22;;;2.13;;
40533;SDS011;26233;51.894;10.192;2023-06-14T12:34:00;2.60;;;2.40;;
40533;SDS011;26233;51.894;10.192;2023-06-14T12:36:27;2.60;;;2.40;;
40533;SDS011;26233;51.894;10.192;2023-06-14T12:38:56;2.22;;;2.00;;
40533;SDS011;26233;51.894;10.192;2023-06-14T12:41:23;1.85;;;1.75;;
40533;SDS011;26233;51.894;10.192;2023-06-14T12:43:51;2.85;;;2.50;;
40533;SDS011;26233;51.894;10.192;2023-06-14T12:46:18;2.67;;;2.30;;
40533;SDS011;26233;51.894;10.192;2023-06-14T12:48:46;3.53;;;2.30;;
40533;SDS011;26233;51.894;10.192;2023-06-14T12:51:13;2.35;;;2.10;;
40533;SDS011;26233;51.894;10.192;2023-06-14T12:53:40;2.63;;;1.85;;
40533;SDS011;26233;51.894;10.192;2023-06-14T12:56:08;2.65;;;2.45;;
40533;SDS011;26233;51.894;10.192;2023-06-14T12:58:35;2.20;;;2.00;;
40533;SDS011;26233;51.894;10.192;2023-06-14T13:01:02;2.47;;;2.28;;
40533;SDS011;26233;51.894;10.192;2023-06-14T13:03:29;2.33;;;2.13;;
40533;SDS011;26233;51.894;10.192;2023-06-14T13:05:58;3.47;;;2.40;;
40533;SDS011;26233;51.894;10.192;2023-06-14T13:08:25;2.70;;;2.50;;
40533;SDS011;26233;51.894;10.192;2023-06-14T13:10:52;2.67;;;2.47;;
40533;SDS011;26233;51.894;10.192;2023-06-14T13:13:21;2.45;;;2.25;;
40533;SDS011;26233;51.894;10.192;2023-06-14T13:15:49;2.50;;;2.30;;
40533;SDS011;26233;51.894;10.192;2023-06-14T13:18:16;3.40;;;2.60;;
40533;SDS011;26233;51.894;10.192;2023-06-14T13:20:43;2.55;;;2.33;;
40533;SDS011;26233;51.894;10.192;2023-06-14T13:23:11;2.60;;;2.40;;
40533;SDS011;26233;51.894;10.192;2023-06-14T13:25:40;2.70;;;2.50;;
40533;SDS011;26233;51.894;10.192;2023-06-14T13:28:07;2.53;;;2.33;;
40533;SDS011;26233;51.894;10.192;2023-06-14T13:30:35;3.33;;;2.88;;
40533;SDS011;26233;51.894;10.192;2023-06-14T13:33:03;2.83;;;2.50;;
40533;SDS011;26233;51.894;10.192;2023-06-14T13:35:30;4.10;;;2.60;;
40533;SDS011;26233;51.894;10.192;2023-06-14T13:37:57;3.63;;;2.50;;
40533;SDS011;26233;51.894;10.192;2023-06-14T13:40:24;2.70;;;2.50;;
40533;SDS011;26233;51.894;10.192;2023-06-14T13:42:51;2.63;;;2.42;;
40533;SDS011;26233;51.894;10.192;2023-06-14T13:45:18;2.63;;;2.40;;
40533;SDS011;26233;51.894;10.192;2023-06-14T13:47:47;2.60;;;2.40;;
40533;SDS011;26233;51.894;10.192;2023-06-14T13:50:14;3.00;;;2.80;;
40533;SDS011;26233;51.894;10.192;2023-06-14T13:52:42;2.65;;;2.45;;
40533;SDS011;26233;51.894;10.192;2023-06-14T13:55:09;2.58;;;2.28;;
40533;SDS011;26233;51.894;10.192;2023-06-14T13:57:36;2.50;;;2.30;;
40533;SDS011;26233;51.894;10.192;2023-06-14T14:00:03;2.65;;;2.38;;
40533;SDS011;26233;51.894;10.192;2023-06-14T14:02:33;2.40;;;2.20;;
40533;SDS011;26233;51.894;10.192;2023-06-14T14:05:02;2.75;;;2.45;;
40533;SDS011;26233;51.894;10.192;2023-06-14T14:07:30;3.30;;;2.47;;
40533;SDS011;26233;51.894;10.192;2023-06-14T14:09:57;2.90;;;2.70;;
40533;SDS011;26233;51.894;10.192;2023-06-14T14:12:24;2.85;;;2.55;;
40533;SDS011;26233;51.894;10.192;2023-06-14T14:14:51;4.35;;;2.38;;
40533;SDS011;26233;51.894;10.192;2023-06-14T14:17:18;28.73;;;4.65;;
40533;SDS011;26233;51.894;10.192;2023-06-14T14:19:45;2.80;;;2.50;;
40533;SDS011;26233;51.894;10.192;2023-06-14T14:22:14;2.70;;;2.50;;
40533;SDS011;26233;51.894;10.192;2023-06-14T14:24:41;2.80;;;2.55;;
40533;SDS011;26233;51.894;10.192;2023-06-14T14:27:09;3.05;;;2.50;;
40533;SDS011;26233;51.894;10.192;2023-06-14T14:29:36;2.85;;;2.40;;
40533;SDS011;26233;51.894;10.192;2023-06-14T14:32:06;2.58;;;2.38;;
40533;SDS011;26233;51.894;10.192;2023-06-14T14:34:38;3.38;;;2.80;;
40533;SDS011;26233;51.894;10.192;2023-06-14T14:37:05;2.60;;;2.40;;
40533;SDS011;26233;51.894;10.192;2023-06-14T14:39:34;2.63;;;2.40;;
40533;SDS011;26233;51.894;10.192;2023-06-14T14:42:02;4.90;;;2.40;;
40533;SDS011;26233;51.894;10.192;2023-06-14T14:44:30;2.50;;;2.30;;
40533;SDS011;26233;51.894;10.192;2023-06-14T14:46:57;3.08;;;2.75;;
40533;SDS011;26233;51.894;10.192;2023-06-14T14:49:24;3.58;;;2.47;;
40533;SDS011;26233;51.894;10.192;2023-06-14T14:51:51;2.80;;;2.60;;
40533;SDS011;26233;51.894;10.192;2023-06-14T14:54:18;2.42;;;2.13;;